sensor_id;sensor_type;location;lat;lon;timestamp;P1;durP1;ratioP1;P2;durP2;ratioP2
80272;SDS011;69574;45.328;9.598;2023-07-09T07:41:50;24.80;;;18.23;;
80272;SDS011;69574;45.328;9.598;2023-07-09T18:00:46;10.18;;;6.93;;
80272;SDS011;69574;45.328;9.598;2023-07-09T18:08:19;10.13;;;7.30;;
80272;SDS011;69574;45.328;9.598;2023-07-09T18:12:32;8.32;;;7.32;;
80272;SDS011;69574;45.328;9.598;2023-07-09T18:16:02;10.68;;;7.07;;
80272;SDS011;69574;45.328;9.598;2023-07-09T18:21:08;10.98;;;7.10;;
80272;SDS011;69574;45.328;9.598;2023-07-09T18:23:39;10.15;;;7.22;;
80272;SDS011;69574;45.328;9.598;2023-07-09T18:26:17;10.05;;;7.28;;
80272;SDS011;69574;45.328;9.598;2023-07-09T18:31:56;10.25;;;7.30;;
80272;SDS011;69574;45.328;9.598;2023-07-09T18:34:30;10.93;;;7.60;;
80272;SDS011;69574;45.328;9.598;2023-07-09T18:45:57;9.07;;;7.78;;
80272;SDS011;69574;45.328;9.598;2023-07-09T18:48:23;10.05;;;7.65;;
80272;SDS011;69574;45.328;9.598;2023-07-09T18:50:49;10.13;;;7.85;;
80272;SDS011;69574;45.328;9.598;2023-07-09T18:53:24;10.20;;;7.90;;
80272;SDS011;69574;45.328;9.598;2023-07-09T18:55:55;9.90;;;8.07;;
80272;SDS011;69574;45.328;9.598;2023-07-09T18:58:26;11.38;;;8.88;;
80272;SDS011;69574;45.328;9.598;2023-07-09T19:01:10;11.73;;;8.60;;
80272;SDS011;69574;45.328;9.598;2023-07-09T19:03:46;12.52;;;8.57;;
80272;SDS011;69574;45.328;9.598;2023-07-09T19:06:14;11.68;;;8.70;;
80272;SDS011;69574;45.328;9.598;2023-07-09T19:08:40;12.65;;;8.80;;
80272;SDS011;69574;45.328;9.598;2023-07-09T19:11:07;12.52;;;9.73;;
80272;SDS011;69574;45.328;9.598;2023-07-09T19:13:33;14.13;;;10.18;;
80272;SDS011;69574;45.328;9.598;2023-07-09T19:19:06;14.68;;;11.45;;
80272;SDS011;69574;45.328;9.598;2023-07-09T19:21:51;12.32;;;10.85;;
80272;SDS011;69574;45.328;9.598;2023-07-09T19:24:26;13.38;;;10.90;;
80272;SDS011;69574;45.328;9.598;2023-07-09T19:26:52;13.98;;;10.73;;
80272;SDS011;69574;45.328;9.598;2023-07-09T19:29:22;11.65;;;10.20;;
80272;SDS011;69574;45.328;9.598;2023-07-09T19:31:49;12.50;;;11.20;;
80272;SDS011;69574;45.328;9.598;2023-07-09T19:34:17;13.48;;;11.63;;
80272;SDS011;69574;45.328;9.598;2023-07-09T19:36:47;14.90;;;11.13;;
80272;SDS011;69574;45.328;9.598;2023-07-09T19:39:22;13.68;;;11.23;;
80272;SDS011;69574;45.328;9.598;2023-07-09T19:41:51;14.15;;;12.50;;
80272;SDS011;69574;45.328;9.598;2023-07-09T19:44:17;13.38;;;11.77;;
80272;SDS011;69574;45.328;9.598;2023-07-09T19:46:43;15.13;;;12.63;;
80272;SDS011;69574;45.328;9.598;2023-07-09T19:49:09;16.15;;;13.63;;
80272;SDS011;69574;45.328;9.598;2023-07-09T19:51:37;17.27;;;14.55;;
80272;SDS011;69574;45.328;9.598;2023-07-09T19:54:08;16.95;;;14.38;;
80272;SDS011;69574;45.328;9.598;2023-07-09T19:56:35;17.83;;;14.70;;
80272;SDS011;69574;45.328;9.598;2023-07-09T19:59:01;18.13;;;14.80;;
80272;SDS011;69574;45.328;9.598;2023-07-09T20:01:27;19.02;;;14.35;;
80272;SDS011;69574;45.328;9.598;2023-07-09T20:03:55;16.77;;;14.98;;
80272;SDS011;69574;45.328;9.598;2023-07-09T20:06:24;17.33;;;15.10;;
80272;SDS011;69574;45.328;9.598;2023-07-09T20:08:52;16.77;;;14.40;;
80272;SDS011;69574;45.328;9.598;2023-07-09T20:11:17;17.50;;;15.65;;
80272;SDS011;69574;45.328;9.598;2023-07-09T20:13:43;18.40;;;16.40;;
80272;SDS011;69574;45.328;9.598;2023-07-09T20:16:17;17.63;;;15.77;;
80272;SDS011;69574;45.328;9.598;2023-07-09T20:18:44;18.13;;;15.80;;
80272;SDS011;69574;45.328;9.598;2023-07-09T20:21:12;18.20;;;15.18;;
80272;SDS011;69574;45.328;9.598;2023-07-09T20:23:41;16.55;;;14.85;;
80272;SDS011;69574;45.328;9.598;2023-07-09T20:26:11;18.63;;;15.88;;
80272;SDS011;69574;45.328;9.598;2023-07-09T20:28:39;17.30;;;15.60;;
80272;SDS011;69574;45.328;9.598;2023-07-09T20:31:07;16.48;;;14.77;;
80272;SDS011;69574;45.328;9.598;2023-07-09T20:33:35;16.20;;;14.50;;
80272;SDS011;69574;45.328;9.598;2023-07-09T20:36:01;16.05;;;14.45;;
80272;SDS011;69574;45.328;9.598;2023-07-09T20:38:29;16.88;;;15.20;;
80272;SDS011;69574;45.328;9.598;2023-07-09T20:40:57;17.23;;;15.43;;
80272;SDS011;69574;45.328;9.598;2023-07-09T20:43:25;18.42;;;15.90;;
80272;SDS011;69574;45.328;9.598;2023-07-09T20:45:53;19.17;;;17.17;;
80272;SDS011;69574;45.328;9.598;2023-07-09T20:48:20;18.63;;;16.75;;
80272;SDS011;69574;45.328;9.598;2023-07-09T20:50:46;19.50;;;17.50;;
80272;SDS011;69574;45.328;9.598;2023-07-09T20:53:15;19.23;;;17.23;;
80272;SDS011;69574;45.328;9.598;2023-07-09T20:55:44;20.25;;;16.77;;
80272;SDS011;69574;45.328;9.598;2023-07-09T20:58:13;18.88;;;16.92;;
80272;SDS011;69574;45.328;9.598;2023-07-09T21:00:42;18.17;;;16.23;;
80272;SDS011;69574;45.328;9.598;2023-07-09T21:03:12;19.30;;;16.80;;
80272;SDS011;69574;45.328;9.598;2023-07-09T21:05:42;16.83;;;15.13;;
80272;SDS011;69574;45.328;9.598;2023-07-09T21:08:13;18.33;;;16.35;;
80272;SDS011;69574;45.328;9.598;2023-07-09T21:10:43;19.05;;;17.15;;
80272;SDS011;69574;45.328;9.598;2023-07-09T21:13:12;18.23;;;16.40;;
80272;SDS011;69574;45.328;9.598;2023-07-09T21:15:39;18.98;;;16.98;;
80272;SDS011;69574;45.328;9.598;2023-07-09T21:18:12;19.35;;;17.17;;
80272;SDS011;69574;45.328;9.598;2023-07-09T21:20:40;19.02;;;17.02;;
80272;SDS011;69574;45.328;9.598;2023-07-09T21:23:10;18.13;;;16.33;;
80272;SDS011;69574;45.328;9.598;2023-07-09T21:25:40;19.27;;;16.60;;
80272;SDS011;69574;45.328;9.598;2023-07-09T21:28:08;19.65;;;17.73;;
80272;SDS011;69574;45.328;9.598;2023-07-09T21:30:38;19.52;;;17.10;;
80272;SDS011;69574;45.328;9.598;2023-07-09T21:33:04;19.50;;;17.35;;
80272;SDS011;69574;45.328;9.598;2023-07-09T21:35:34;22.05;;;18.45;;
80272;SDS011;69574;45.328;9.598;2023-07-09T21:38:00;20.65;;;18.33;;
80272;SDS011;69574;45.328;9.598;2023-07-09T21:40:29;20.40;;;18.25;;
80272;SDS011;69574;45.328;9.598;2023-07-09T21:42:57;19.52;;;17.52;;
80272;SDS011;69574;45.328;9.598;2023-07-09T21:45:25;22.63;;;19.30;;
80272;SDS011;69574;45.328;9.598;2023-07-09T21:47:51;21.55;;;19.33;;
80272;SDS011;69574;45.328;9.598;2023-07-09T21:50:18;19.15;;;17.25;;
80272;SDS011;69574;45.328;9.598;2023-07-09T21:52:45;18.80;;;16.85;;
80272;SDS011;69574;45.328;9.598;2023-07-09T21:55:15;19.98;;;17.63;;
80272;SDS011;69574;45.328;9.598;2023-07-09T21:57:41;20.52;;;17.45;;
80272;SDS011;69574;45.328;9.598;2023-07-09T22:00:09;20.63;;;17.95;;
80272;SDS011;69574;45.328;9.598;2023-07-09T22:02:38;23.50;;;19.02;;
80272;SDS011;69574;45.328;9.598;2023-07-09T22:05:05;25.45;;;19.42;;
80272;SDS011;69574;45.328;9.598;2023-07-09T22:07:31;25.08;;;19.67;;
80272;SDS011;69574;45.328;9.598;2023-07-09T22:09:58;24.02;;;19.27;;
80272;SDS011;69574;45.328;9.598;2023-07-09T22:12:24;22.67;;;19.17;;
80272;SDS011;69574;45.328;9.598;2023-07-09T22:17:16;31.63;;;19.90;;
80272;SDS011;69574;45.328;9.598;2023-07-09T22:19:42;118.10;;;27.55;;
80272;SDS011;69574;45.328;9.598;2023-07-09T22:22:08;113.38;;;28.08;;
80272;SDS011;69574;45.328;9.598;2023-07-09T22:24:35;107.95;;;28.27;;
80272;SDS011;69574;45.328;9.598;2023-07-09T22:27:04;54.45;;;24.65;;
80272;SDS011;69574;45.328;9.598;2023-07-09T22:29:30;44.17;;;24.08;;
80272;SDS011;69574;45.328;9.598;2023-07-09T22:31:56;30.90;;;25.05;;
80272;SDS011;69574;45.328;9.598;2023-07-09T22:34:23;28.25;;;25.17;;
80272;SDS011;69574;45.328;9.598;2023-07-09T22:36:49;27.67;;;24.67;;
80272;SDS011;69574;45.328;9.598;2023-07-09T22:39:15;26.55;;;23.27;;
80272;SDS011;69574;45.328;9.598;2023-07-09T22:41:43;29.40;;;24.73;;
80272;SDS011;69574;45.328;9.598;2023-07-09T22:44:10;28.63;;;25.63;;
80272;SDS011;69574;45.328;9.598;2023-07-09T22:46:37;27.55;;;24.75;;
80272;SDS011;69574;45.328;9.598;2023-07-09T22:51:28;25.67;;;23.00;;
80272;SDS011;69574;45.328;9.598;2023-07-09T22:53:58;27.60;;;24.85;;
80272;SDS011;69574;45.328;9.598;2023-07-09T22:56:25;29.23;;;26.13;;
80272;SDS011;69574;45.328;9.598;2023-07-09T22:58:51;29.48;;;26.35;;
80272;SDS011;69574;45.328;9.598;2023-07-09T23:01:19;30.58;;;27.38;;
80272;SDS011;69574;45.328;9.598;2023-07-09T23:03:45;30.90;;;27.88;;
80272;SDS011;69574;45.328;9.598;2023-07-09T23:06:12;31.80;;;28.60;;
80272;SDS011;69574;45.328;9.598;2023-07-09T23:08:42;29.73;;;26.00;;
80272;SDS011;69574;45.328;9.598;2023-07-09T23:11:12;31.58;;;28.15;;
80272;SDS011;69574;45.328;9.598;2023-07-09T23:13:40;31.48;;;28.27;;
80272;SDS011;69574;45.328;9.598;2023-07-09T23:16:09;32.78;;;29.27;;
80272;SDS011;69574;45.328;9.598;2023-07-09T23:18:39;34.90;;;31.33;;
80272;SDS011;69574;45.328;9.598;2023-07-09T23:21:04;34.42;;;30.73;;
80272;SDS011;69574;45.328;9.598;2023-07-09T23:23:30;35.80;;;32.15;;
80272;SDS011;69574;45.328;9.598;2023-07-09T23:25:58;37.25;;;32.88;;
80272;SDS011;69574;45.328;9.598;2023-07-09T23:28:23;38.45;;;34.63;;
80272;SDS011;69574;45.328;9.598;2023-07-09T23:30:49;38.25;;;34.33;;
80272;SDS011;69574;45.328;9.598;2023-07-09T23:33:21;39.38;;;35.30;;
80272;SDS011;69574;45.328;9.598;2023-07-09T23:35:51;43.35;;;38.88;;
80272;SDS011;69574;45.328;9.598;2023-07-09T23:38:31;43.25;;;38.88;;
80272;SDS011;69574;45.328;9.598;2023-07-09T23:41:00;43.75;;;39.35;;
80272;SDS011;69574;45.328;9.598;2023-07-09T23:45:51;45.80;;;41.03;;
80272;SDS011;69574;45.328;9.598;2023-07-09T23:48:21;43.38;;;38.88;;
80272;SDS011;69574;45.328;9.598;2023-07-09T23:50:52;38.85;;;34.88;;
80272;SDS011;69574;45.328;9.598;2023-07-09T23:53:23;32.17;;;28.83;;
80272;SDS011;69574;45.328;9.598;2023-07-09T23:55:50;31.20;;;27.90;;
80272;SDS011;69574;45.328;9.598;2023-07-09T23:58:16;29.50;;;26.50;;
